sensor_id;sensor_type;location;lat;lon;timestamp;pressure;altitude;pressure_sealevel;temperature;humidity
43298;BME280;28892;55.640;37.532;2022-12-20T00:00:17;99819.13;;;-1.75;66.49
43298;BME280;28892;55.640;37.532;2022-12-20T00:02:43;99822.06;;;-1.65;66.02
43298;BME280;28892;55.640;37.532;2022-12-20T00:05:09;99817.00;;;-1.69;66.09
43298;BME280;28892;55.640;37.532;2022-12-20T00:07:34;99837.03;;;-1.55;65.74
43298;BME280;28892;55.640;37.532;2022-12-20T00:10:00;99836.28;;;-1.57;65.74
43298;BME280;28892;55.640;37.532;2022-12-20T00:12:26;99831.59;;;-1.66;65.58
43298;BME280;28892;55.640;37.532;2022-12-20T00:14:51;99821.56;;;-1.72;65.73
43298;BME280;28892;55.640;37.532;2022-12-20T00:17:17;99810.41;;;-1.74;66.07
43298;BME280;28892;55.640;37.532;2022-12-20T00:19:43;99813.19;;;-1.77;65.59
43298;BME280;28892;55.640;37.532;2022-12-20T00:22:09;99825.09;;;-1.73;65.35
43298;BME280;28892;55.640;37.532;2022-12-20T00:24:35;99820.47;;;-1.68;65.60
43298;BME280;28892;55.640;37.532;2022-12-20T00:27:01;99832.53;;;-1.67;64.56
43298;BME280;28892;55.640;37.532;2022-12-20T00:29:26;99803.78;;;-1.80;65.18
43298;BME280;28892;55.640;37.532;2022-12-20T00:31:52;99807.53;;;-2.00;65.79
43298;BME280;28892;55.640;37.532;2022-12-20T00:34:18;99817.78;;;-2.29;66.35
43298;BME280;28892;55.640;37.532;2022-12-20T00:36:43;99819.81;;;-2.34;66.40
43298;BME280;28892;55.640;37.532;2022-12-20T00:39:09;99807.31;;;-2.44;66.48
43298;BME280;28892;55.640;37.532;2022-12-20T00:41:35;99807.38;;;-2.29;66.16
43298;BME280;28892;55.640;37.532;2022-12-20T00:44:02;99797.31;;;-2.03;65.55
43298;BME280;28892;55.640;37.532;2022-12-20T00:46:28;99788.78;;;-2.05;65.32
43298;BME280;28892;55.640;37.532;2022-12-20T00:48:57;99783.38;;;-2.02;65.47
43298;BME280;28892;55.640;37.532;2022-12-20T00:51:25;99786.66;;;-1.99;65.66
43298;BME280;28892;55.640;37.532;2022-12-20T00:53:52;99790.22;;;-2.16;65.77
43298;BME280;28892;55.640;37.532;2022-12-20T00:56:18;99781.38;;;-2.13;66.11
43298;BME280;28892;55.640;37.532;2022-12-20T00:58:44;99770.19;;;-1.99;65.97
43298;BME280;28892;55.640;37.532;2022-12-20T01:01:25;99774.34;;;-1.80;65.28
43298;BME280;28892;55.640;37.532;2022-12-20T01:03:52;99764.78;;;-2.11;65.49
43298;BME280;28892;55.640;37.532;2022-12-20T01:06:19;99741.50;;;-2.28;66.08
43298;BME280;28892;55.640;37.532;2022-12-20T01:08:44;99773.84;;;-2.18;65.65
43298;BME280;28892;55.640;37.532;2022-12-20T01:11:21;99776.59;;;-2.05;65.76
43298;BME280;28892;55.640;37.532;2022-12-20T01:13:50;99756.66;;;-2.04;65.49
43298;BME280;28892;55.640;37.532;2022-12-20T01:16:22;99735.75;;;-2.03;65.64
43298;BME280;28892;55.640;37.532;2022-12-20T01:18:48;99725.78;;;-2.11;65.67
43298;BME280;28892;55.640;37.532;2022-12-20T01:21:16;99742.00;;;-2.21;65.95
43298;BME280;28892;55.640;37.532;2022-12-20T01:23:42;99755.34;;;-1.97;64.79
43298;BME280;28892;55.640;37.532;2022-12-20T01:26:11;99740.75;;;-2.30;65.56
43298;BME280;28892;55.640;37.532;2022-12-20T01:28:39;99730.09;;;-2.26;65.89
43298;BME280;28892;55.640;37.532;2022-12-20T01:31:07;99731.66;;;-2.37;66.38
43298;BME280;28892;55.640;37.532;2022-12-20T01:33:34;99727.97;;;-2.49;66.36
43298;BME280;28892;55.640;37.532;2022-12-20T01:36:05;99706.03;;;-2.60;67.33
43298;BME280;28892;55.640;37.532;2022-12-20T01:38:31;99703.34;;;-2.58;66.82
43298;BME280;28892;55.640;37.532;2022-12-20T01:40:57;99711.53;;;-2.50;66.60
43298;BME280;28892;55.640;37.532;2022-12-20T01:43:24;99726.78;;;-2.44;66.01
43298;BME280;28892;55.640;37.532;2022-12-20T01:45:50;99716.94;;;-2.39;65.91
43298;BME280;28892;55.640;37.532;2022-12-20T01:48:23;99714.56;;;-2.74;66.39
43298;BME280;28892;55.640;37.532;2022-12-20T01:50:50;99714.13;;;-2.50;66.19
43298;BME280;28892;55.640;37.532;2022-12-20T01:53:18;99717.09;;;-2.72;66.69
43298;BME280;28892;55.640;37.532;2022-12-20T01:55:46;99714.41;;;-2.71;66.41
43298;BME280;28892;55.640;37.532;2022-12-20T01:58:13;99721.94;;;-2.66;66.38
43298;BME280;28892;55.640;37.532;2022-12-20T02:00:41;99714.56;;;-2.58;66.03
43298;BME280;28892;55.640;37.532;2022-12-20T02:03:10;99727.78;;;-2.46;66.00
43298;BME280;28892;55.640;37.532;2022-12-20T02:05:39;99733.44;;;-2.23;65.09
43298;BME280;28892;55.640;37.532;2022-12-20T02:08:06;99721.31;;;-2.39;64.62
43298;BME280;28892;55.640;37.532;2022-12-20T02:13:22;99722.09;;;-2.53;65.10
43298;BME280;28892;55.640;37.532;2022-12-20T02:15:57;99711.97;;;-2.74;65.16
43298;BME280;28892;55.640;37.532;2022-12-20T02:18:40;99717.50;;;-3.12;65.57
43298;BME280;28892;55.640;37.532;2022-12-20T02:21:28;99713.63;;;-2.73;65.57
43298;BME280;28892;55.640;37.532;2022-12-20T02:24:19;99712.91;;;-2.91;64.98
43298;BME280;28892;55.640;37.532;2022-12-20T02:32:34;99697.66;;;-2.97;64.72
43298;BME280;28892;55.640;37.532;2022-12-20T02:35:05;99700.47;;;-3.68;65.86
43298;BME280;28892;55.640;37.532;2022-12-20T02:37:32;99691.50;;;-3.44;65.98
43298;BME280;28892;55.640;37.532;2022-12-20T02:39:58;99689.25;;;-3.34;65.12
43298;BME280;28892;55.640;37.532;2022-12-20T02:42:25;99695.28;;;-3.34;64.78
43298;BME280;28892;55.640;37.532;2022-12-20T02:45:04;99687.44;;;-3.16;64.81
43298;BME280;28892;55.640;37.532;2022-12-20T02:47:52;99677.81;;;-3.64;64.45
43298;BME280;28892;55.640;37.532;2022-12-20T02:50:26;99673.84;;;-3.38;64.47
43298;BME280;28892;55.640;37.532;2022-12-20T02:52:53;99673.84;;;-3.38;64.08
43298;BME280;28892;55.640;37.532;2022-12-20T02:55:24;99662.38;;;-3.33;63.89
43298;BME280;28892;55.640;37.532;2022-12-20T02:58:02;99667.13;;;-3.42;62.80
43298;BME280;28892;55.640;37.532;2022-12-20T03:00:33;99659.09;;;-3.37;63.14
43298;BME280;28892;55.640;37.532;2022-12-20T03:03:02;99657.19;;;-3.33;62.57
43298;BME280;28892;55.640;37.532;2022-12-20T03:05:52;99662.13;;;-3.29;62.02
43298;BME280;28892;55.640;37.532;2022-12-20T03:11:51;99634.34;;;-3.27;61.95
43298;BME280;28892;55.640;37.532;2022-12-20T03:14:30;99633.34;;;-3.24;61.95
43298;BME280;28892;55.640;37.532;2022-12-20T03:17:09;99627.66;;;-3.31;61.80
43298;BME280;28892;55.640;37.532;2022-12-20T03:19:37;99632.25;;;-3.36;62.14
43298;BME280;28892;55.640;37.532;2022-12-20T03:22:04;99622.28;;;-3.28;62.07
43298;BME280;28892;55.640;37.532;2022-12-20T03:24:30;99626.31;;;-3.22;61.66
43298;BME280;28892;55.640;37.532;2022-12-20T03:26:57;99623.88;;;-3.41;61.50
43298;BME280;28892;55.640;37.532;2022-12-20T03:29:23;99622.72;;;-3.35;61.76
43298;BME280;28892;55.640;37.532;2022-12-20T03:31:49;99619.63;;;-3.42;61.41
43298;BME280;28892;55.640;37.532;2022-12-20T03:34:15;99620.28;;;-3.55;61.30
43298;BME280;28892;55.640;37.532;2022-12-20T03:36:41;99613.81;;;-3.63;60.80
43298;BME280;28892;55.640;37.532;2022-12-20T03:39:06;99609.91;;;-3.55;61.50
43298;BME280;28892;55.640;37.532;2022-12-20T03:41:36;99610.59;;;-3.51;61.12
43298;BME280;28892;55.640;37.532;2022-12-20T03:44:02;99604.13;;;-3.60;60.93
43298;BME280;28892;55.640;37.532;2022-12-20T03:46:29;99603.88;;;-3.55;61.11
43298;BME280;28892;55.640;37.532;2022-12-20T03:48:55;99599.38;;;-3.52;61.25
43298;BME280;28892;55.640;37.532;2022-12-20T03:51:21;99603.53;;;-3.65;60.55
43298;BME280;28892;55.640;37.532;2022-12-20T03:53:47;99584.13;;;-4.08;60.89
43298;BME280;28892;55.640;37.532;2022-12-20T03:56:13;99576.28;;;-4.06;61.62
43298;BME280;28892;55.640;37.532;2022-12-20T03:58:41;99582.31;;;-3.89;61.76
43298;BME280;28892;55.640;37.532;2022-12-20T04:01:24;99580.75;;;-3.76;61.36
43298;BME280;28892;55.640;37.532;2022-12-20T04:03:52;99574.75;;;-3.76;60.71
43298;BME280;28892;55.640;37.532;2022-12-20T04:06:19;99565.63;;;-3.84;60.33
43298;BME280;28892;55.640;37.532;2022-12-20T04:08:45;99567.91;;;-3.77;60.84
43298;BME280;28892;55.640;37.532;2022-12-20T04:11:18;99554.91;;;-3.94;60.23
43298;BME280;28892;55.640;37.532;2022-12-20T04:13:51;99555.31;;;-3.85;60.98
43298;BME280;28892;55.640;37.532;2022-12-20T04:16:21;99540.78;;;-3.88;60.86
43298;BME280;28892;55.640;37.532;2022-12-20T04:18:50;99524.81;;;-3.96;60.03
43298;BME280;28892;55.640;37.532;2022-12-20T04:21:22;99526.56;;;-3.81;60.26
43298;BME280;28892;55.640;37.532;2022-12-20T04:23:54;99528.28;;;-4.13;58.95
43298;BME280;28892;55.640;37.532;2022-12-20T04:26:22;99521.44;;;-4.14;59.57
43298;BME280;28892;55.640;37.532;2022-12-20T04:28:48;99524.72;;;-4.11;59.46
43298;BME280;28892;55.640;37.532;2022-12-20T04:31:14;99523.31;;;-4.00;59.69
43298;BME280;28892;55.640;37.532;2022-12-20T04:33:40;99514.44;;;-3.96;59.12
43298;BME280;28892;55.640;37.532;2022-12-20T04:36:08;99523.72;;;-3.92;59.11
43298;BME280;28892;55.640;37.532;2022-12-20T04:38:37;99522.53;;;-3.86;58.92
43298;BME280;28892;55.640;37.532;2022-12-20T04:41:02;99529.13;;;-3.97;58.03
43298;BME280;28892;55.640;37.532;2022-12-20T04:43:39;99527.88;;;-4.05;58.49
43298;BME280;28892;55.640;37.532;2022-12-20T04:46:06;99527.63;;;-4.35;58.44
43298;BME280;28892;55.640;37.532;2022-12-20T04:48:31;99526.44;;;-4.45;58.54
43298;BME280;28892;55.640;37.532;2022-12-20T04:50:57;99518.94;;;-4.33;58.91
43298;BME280;28892;55.640;37.532;2022-12-20T04:53:24;99529.69;;;-4.24;58.50
43298;BME280;28892;55.640;37.532;2022-12-20T04:56:09;99516.66;;;-4.22;58.12
43298;BME280;28892;55.640;37.532;2022-12-20T04:58:35;99519.25;;;-4.22;58.44
43298;BME280;28892;55.640;37.532;2022-12-20T05:01:03;99512.50;;;-4.42;57.62
43298;BME280;28892;55.640;37.532;2022-12-20T05:03:37;99508.31;;;-4.45;57.69
43298;BME280;28892;55.640;37.532;2022-12-20T05:06:04;99518.59;;;-4.43;57.57
43298;BME280;28892;55.640;37.532;2022-12-20T05:08:32;99517.84;;;-4.45;57.68
43298;BME280;28892;55.640;37.532;2022-12-20T05:10:59;99502.97;;;-4.42;58.04
43298;BME280;28892;55.640;37.532;2022-12-20T05:13:25;99494.28;;;-4.41;57.98
43298;BME280;28892;55.640;37.532;2022-12-20T05:15:52;99498.31;;;-4.35;57.82
43298;BME280;28892;55.640;37.532;2022-12-20T05:18:23;99500.06;;;-4.36;57.26
43298;BME280;28892;55.640;37.532;2022-12-20T05:20:58;99501.97;;;-4.73;56.51
43298;BME280;28892;55.640;37.532;2022-12-20T05:23:45;99498.53;;;-4.73;57.85
43298;BME280;28892;55.640;37.532;2022-12-20T05:26:36;99495.75;;;-4.53;58.24
43298;BME280;28892;55.640;37.532;2022-12-20T05:29:04;99501.44;;;-4.46;57.82
43298;BME280;28892;55.640;37.532;2022-12-20T05:31:30;99491.38;;;-4.35;57.65
43298;BME280;28892;55.640;37.532;2022-12-20T05:33:56;99486.06;;;-4.31;56.96
43298;BME280;28892;55.640;37.532;2022-12-20T05:36:27;99481.78;;;-4.32;56.99
43298;BME280;28892;55.640;37.532;2022-12-20T05:38:54;99483.78;;;-4.38;56.80
43298;BME280;28892;55.640;37.532;2022-12-20T05:41:20;99476.25;;;-4.94;56.41
43298;BME280;28892;55.640;37.532;2022-12-20T05:43:48;99470.66;;;-4.68;57.09
43298;BME280;28892;55.640;37.532;2022-12-20T05:46:14;99474.28;;;-4.55;57.13
43298;BME280;28892;55.640;37.532;2022-12-20T05:48:51;99469.78;;;-4.51;57.00
43298;BME280;28892;55.640;37.532;2022-12-20T05:51:17;99463.06;;;-4.38;56.75
43298;BME280;28892;55.640;37.532;2022-12-20T05:53:52;99462.50;;;-4.27;56.71
43298;BME280;28892;55.640;37.532;2022-12-20T05:56:25;99455.91;;;-4.16;56.49
43298;BME280;28892;55.640;37.532;2022-12-20T05:58:51;99453.72;;;-4.24;55.80
43298;BME280;28892;55.640;37.532;2022-12-20T06:01:16;99453.13;;;-4.29;56.00
43298;BME280;28892;55.640;37.532;2022-12-20T06:03:43;99458.25;;;-4.28;56.06
43298;BME280;28892;55.640;37.532;2022-12-20T06:06:15;99444.44;;;-4.28;56.22
43298;BME280;28892;55.640;37.532;2022-12-20T06:08:44;99451.72;;;-4.19;56.09
43298;BME280;28892;55.640;37.532;2022-12-20T06:11:15;99442.28;;;-4.20;56.09
43298;BME280;28892;55.640;37.532;2022-12-20T06:13:48;99446.22;;;-4.63;55.56
43298;BME280;28892;55.640;37.532;2022-12-20T06:16:14;99438.75;;;-4.69;56.34
43298;BME280;28892;55.640;37.532;2022-12-20T06:18:40;99449.75;;;-4.47;56.85
43298;BME280;28892;55.640;37.532;2022-12-20T06:21:06;99428.88;;;-4.78;56.00
43298;BME280;28892;55.640;37.532;2022-12-20T06:23:32;99438.09;;;-4.56;57.06
43298;BME280;28892;55.640;37.532;2022-12-20T06:26:07;99427.88;;;-4.42;56.38
43298;BME280;28892;55.640;37.532;2022-12-20T06:28:38;99427.31;;;-4.31;56.50
43298;BME280;28892;55.640;37.532;2022-12-20T06:31:12;99431.75;;;-4.17;56.17
43298;BME280;28892;55.640;37.532;2022-12-20T06:33:43;99425.56;;;-4.30;55.57
43298;BME280;28892;55.640;37.532;2022-12-20T06:36:10;99426.13;;;-4.25;55.39
43298;BME280;28892;55.640;37.532;2022-12-20T06:38:36;99425.56;;;-4.64;55.36
43298;BME280;28892;55.640;37.532;2022-12-20T06:41:02;99429.38;;;-4.38;56.29
43298;BME280;28892;55.640;37.532;2022-12-20T06:43:30;99427.41;;;-4.32;55.99
43298;BME280;28892;55.640;37.532;2022-12-20T06:45:56;99418.97;;;-4.20;55.60
43298;BME280;28892;55.640;37.532;2022-12-20T06:48:21;99402.50;;;-4.19;55.25
43298;BME280;28892;55.640;37.532;2022-12-20T06:50:48;99411.59;;;-4.44;54.70
43298;BME280;28892;55.640;37.532;2022-12-20T06:53:15;99394.47;;;-4.80;55.52
43298;BME280;28892;55.640;37.532;2022-12-20T06:55:41;99399.69;;;-4.64;55.83
43298;BME280;28892;55.640;37.532;2022-12-20T06:58:07;99388.88;;;-4.72;55.76
43298;BME280;28892;55.640;37.532;2022-12-20T07:00:35;99384.81;;;-4.77;55.92
43298;BME280;28892;55.640;37.532;2022-12-20T07:03:01;99376.16;;;-4.43;56.43
43298;BME280;28892;55.640;37.532;2022-12-20T07:05:26;99376.59;;;-4.35;55.05
43298;BME280;28892;55.640;37.532;2022-12-20T07:07:52;99372.91;;;-4.31;55.44
43298;BME280;28892;55.640;37.532;2022-12-20T07:10:18;99369.16;;;-4.25;55.37
43298;BME280;28892;55.640;37.532;2022-12-20T07:12:44;99362.72;;;-4.18;54.92
43298;BME280;28892;55.640;37.532;2022-12-20T07:15:09;99350.25;;;-4.11;54.91
43298;BME280;28892;55.640;37.532;2022-12-20T07:17:35;99343.97;;;-4.07;54.44
43298;BME280;28892;55.640;37.532;2022-12-20T07:20:01;99341.75;;;-4.29;53.55
43298;BME280;28892;55.640;37.532;2022-12-20T07:22:27;99338.38;;;-3.99;54.54
43298;BME280;28892;55.640;37.532;2022-12-20T07:24:53;99332.31;;;-3.84;54.34
43298;BME280;28892;55.640;37.532;2022-12-20T07:27:19;99327.06;;;-3.82;53.76
43298;BME280;28892;55.640;37.532;2022-12-20T07:29:44;99331.41;;;-3.83;53.68
43298;BME280;28892;55.640;37.532;2022-12-20T07:32:11;99316.22;;;-3.89;53.60
43298;BME280;28892;55.640;37.532;2022-12-20T07:34:37;99313.50;;;-3.87;53.87
43298;BME280;28892;55.640;37.532;2022-12-20T07:37:03;99299.94;;;-4.07;53.69
43298;BME280;28892;55.640;37.532;2022-12-20T07:39:28;99307.38;;;-4.01;53.59
43298;BME280;28892;55.640;37.532;2022-12-20T07:41:54;99303.38;;;-3.76;52.94
43298;BME280;28892;55.640;37.532;2022-12-20T07:44:22;99296.44;;;-3.75;52.67
43298;BME280;28892;55.640;37.532;2022-12-20T07:46:47;99290.00;;;-4.15;52.65
43298;BME280;28892;55.640;37.532;2022-12-20T07:49:13;99295.78;;;-4.10;53.53
43298;BME280;28892;55.640;37.532;2022-12-20T07:51:43;99274.47;;;-4.15;54.05
43298;BME280;28892;55.640;37.532;2022-12-20T07:54:13;99266.59;;;-4.13;53.21
43298;BME280;28892;55.640;37.532;2022-12-20T07:56:43;99261.16;;;-4.09;53.31
43298;BME280;28892;55.640;37.532;2022-12-20T07:59:13;99271.84;;;-4.45;53.06
43298;BME280;28892;55.640;37.532;2022-12-20T08:01:41;99259.53;;;-5.22;54.11
43298;BME280;28892;55.640;37.532;2022-12-20T08:04:11;99258.16;;;-4.80;55.01
43298;BME280;28892;55.640;37.532;2022-12-20T08:06:38;99254.56;;;-5.61;54.22
43298;BME280;28892;55.640;37.532;2022-12-20T08:09:07;99232.78;;;-4.89;55.76
43298;BME280;28892;55.640;37.532;2022-12-20T08:11:35;99210.53;;;-3.55;54.32
43298;BME280;28892;55.640;37.532;2022-12-20T08:14:02;99208.22;;;-0.78;48.81
43298;BME280;28892;55.640;37.532;2022-12-20T08:16:28;99196.50;;;1.59;45.59
43298;BME280;28892;55.640;37.532;2022-12-20T08:18:55;99195.69;;;3.45;40.56
43298;BME280;28892;55.640;37.532;2022-12-20T08:21:21;99198.53;;;4.79;36.00
43298;BME280;28892;55.640;37.532;2022-12-20T08:23:47;99190.16;;;6.12;35.29
43298;BME280;28892;55.640;37.532;2022-12-20T08:26:13;99206.19;;;6.80;34.37
43298;BME280;28892;55.640;37.532;2022-12-20T08:28:39;99181.75;;;6.69;34.32
43298;BME280;28892;55.640;37.532;2022-12-20T08:31:07;99170.06;;;5.93;32.06
43298;BME280;28892;55.640;37.532;2022-12-20T08:33:34;99193.94;;;7.05;32.66
43298;BME280;28892;55.640;37.532;2022-12-20T08:36:02;99202.09;;;6.85;33.06
43298;BME280;28892;55.640;37.532;2022-12-20T08:38:29;99184.63;;;5.61;33.78
43298;BME280;28892;55.640;37.532;2022-12-20T08:41:00;99170.13;;;6.46;32.24
43298;BME280;28892;55.640;37.532;2022-12-20T08:43:26;99163.66;;;7.34;31.22
43298;BME280;28892;55.640;37.532;2022-12-20T08:45:52;99158.38;;;8.01;31.39
43298;BME280;28892;55.640;37.532;2022-12-20T08:48:19;99164.84;;;7.81;30.12
43298;BME280;28892;55.640;37.532;2022-12-20T08:50:45;99170.97;;;7.82;30.96
43298;BME280;28892;55.640;37.532;2022-12-20T08:53:11;99160.81;;;8.27;30.66
43298;BME280;28892;55.640;37.532;2022-12-20T08:55:36;99162.53;;;7.78;30.72
43298;BME280;28892;55.640;37.532;2022-12-20T08:58:02;99154.09;;;7.41;29.86
43298;BME280;28892;55.640;37.532;2022-12-20T09:00:28;99142.81;;;6.98;31.21
43298;BME280;28892;55.640;37.532;2022-12-20T09:02:54;99147.91;;;6.56;31.96
43298;BME280;28892;55.640;37.532;2022-12-20T09:05:19;99137.84;;;6.95;31.30
43298;BME280;28892;55.640;37.532;2022-12-20T09:07:45;99139.41;;;7.64;32.11
43298;BME280;28892;55.640;37.532;2022-12-20T09:10:11;99130.97;;;8.10;30.93
43298;BME280;28892;55.640;37.532;2022-12-20T09:12:38;99104.13;;;8.46;31.16
43298;BME280;28892;55.640;37.532;2022-12-20T09:15:04;99112.72;;;8.40;30.99
43298;BME280;28892;55.640;37.532;2022-12-20T09:17:30;99103.78;;;8.49;30.01
43298;BME280;28892;55.640;37.532;2022-12-20T09:19:56;99107.31;;;8.82;30.14
43298;BME280;28892;55.640;37.532;2022-12-20T09:22:21;99101.25;;;7.00;29.29
43298;BME280;28892;55.640;37.532;2022-12-20T09:24:47;99095.88;;;7.68;31.84
43298;BME280;28892;55.640;37.532;2022-12-20T09:27:13;99103.00;;;8.41;30.65
43298;BME280;28892;55.640;37.532;2022-12-20T09:29:39;99091.00;;;8.70;30.52
43298;BME280;28892;55.640;37.532;2022-12-20T09:32:05;99093.63;;;8.21;30.17
43298;BME280;28892;55.640;37.532;2022-12-20T09:34:31;99086.78;;;7.79;30.05
43298;BME280;28892;55.640;37.532;2022-12-20T09:36:57;99077.50;;;6.83;30.67
43298;BME280;28892;55.640;37.532;2022-12-20T09:39:22;99081.66;;;6.43;32.60
43298;BME280;28892;55.640;37.532;2022-12-20T09:41:48;99070.06;;;5.48;32.87
43298;BME280;28892;55.640;37.532;2022-12-20T09:46:43;99066.09;;;6.23;31.97
43298;BME280;28892;55.640;37.532;2022-12-20T09:49:14;99050.38;;;5.34;32.01
43298;BME280;28892;55.640;37.532;2022-12-20T09:57:19;99040.44;;;3.42;33.39
43298;BME280;28892;55.640;37.532;2022-12-20T09:59:48;99040.28;;;3.43;36.28
43298;BME280;28892;55.640;37.532;2022-12-20T10:02:19;99030.91;;;3.51;35.97
43298;BME280;28892;55.640;37.532;2022-12-20T10:04:47;99011.72;;;2.42;35.50
43298;BME280;28892;55.640;37.532;2022-12-20T10:22:07;98980.19;;;5.35;32.53
43298;BME280;28892;55.640;37.532;2022-12-20T10:24:32;98984.47;;;6.32;33.66
43298;BME280;28892;55.640;37.532;2022-12-20T10:27:15;98976.25;;;4.58;32.25
43298;BME280;28892;55.640;37.532;2022-12-20T10:29:42;98981.38;;;3.47;35.04
43298;BME280;28892;55.640;37.532;2022-12-20T10:32:15;98969.84;;;3.11;35.79
43298;BME280;28892;55.640;37.532;2022-12-20T10:34:59;98975.59;;;4.10;36.68
43298;BME280;28892;55.640;37.532;2022-12-20T10:37:36;98965.31;;;4.81;34.74
43298;BME280;28892;55.640;37.532;2022-12-20T10:40:03;98973.53;;;5.49;34.19
43298;BME280;28892;55.640;37.532;2022-12-20T10:45:01;98958.50;;;4.52;34.25
43298;BME280;28892;55.640;37.532;2022-12-20T10:47:37;98957.13;;;4.01;35.20
43298;BME280;28892;55.640;37.532;2022-12-20T10:50:23;98948.16;;;1.17;37.35
43298;BME280;28892;55.640;37.532;2022-12-20T10:53:22;98957.13;;;-0.07;40.50
43298;BME280;28892;55.640;37.532;2022-12-20T10:55:51;98950.19;;;-0.99;42.68
43298;BME280;28892;55.640;37.532;2022-12-20T11:01:03;98936.44;;;0.90;40.32
43298;BME280;28892;55.640;37.532;2022-12-20T11:03:29;98948.84;;;-0.58;40.86
43298;BME280;28892;55.640;37.532;2022-12-20T11:05:56;98953.28;;;-0.94;41.92
43298;BME280;28892;55.640;37.532;2022-12-20T11:08:23;98932.97;;;-0.43;42.70
43298;BME280;28892;55.640;37.532;2022-12-20T11:10:49;98932.53;;;0.84;41.02
43298;BME280;28892;55.640;37.532;2022-12-20T11:13:23;98935.81;;;1.81;39.70
43298;BME280;28892;55.640;37.532;2022-12-20T11:15:54;98937.56;;;1.18;39.39
43298;BME280;28892;55.640;37.532;2022-12-20T11:21:08;98946.06;;;1.63;37.92
43298;BME280;28892;55.640;37.532;2022-12-20T11:24:07;98939.50;;;1.37;40.61
43298;BME280;28892;55.640;37.532;2022-12-20T11:32:24;98923.94;;;1.36;39.44
43298;BME280;28892;55.640;37.532;2022-12-20T11:35:13;98914.41;;;1.04;40.28
43298;BME280;28892;55.640;37.532;2022-12-20T11:37:59;98918.50;;;0.31;40.68
43298;BME280;28892;55.640;37.532;2022-12-20T11:43:36;98920.56;;;-0.51;42.30
43298;BME280;28892;55.640;37.532;2022-12-20T11:46:29;98921.72;;;-1.25;43.42
43298;BME280;28892;55.640;37.532;2022-12-20T11:49:19;98911.38;;;-1.02;43.07
43298;BME280;28892;55.640;37.532;2022-12-20T11:51:48;98918.22;;;-1.73;44.37
43298;BME280;28892;55.640;37.532;2022-12-20T11:54:39;98912.28;;;-1.99;45.18
43298;BME280;28892;55.640;37.532;2022-12-20T11:57:13;98911.53;;;-2.39;46.21
43298;BME280;28892;55.640;37.532;2022-12-20T11:59:45;98906.88;;;-2.46;46.21
43298;BME280;28892;55.640;37.532;2022-12-20T12:02:23;98900.19;;;-2.75;47.34
43298;BME280;28892;55.640;37.532;2022-12-20T12:04:57;98915.66;;;-3.12;48.37
43298;BME280;28892;55.640;37.532;2022-12-20T12:07:28;98908.22;;;-3.44;48.66
43298;BME280;28892;55.640;37.532;2022-12-20T12:10:03;98901.03;;;-3.54;48.96
43298;BME280;28892;55.640;37.532;2022-12-20T12:12:41;98877.91;;;-3.44;49.15
43298;BME280;28892;55.640;37.532;2022-12-20T12:18:06;98891.78;;;-3.04;48.43
43298;BME280;28892;55.640;37.532;2022-12-20T12:23:26;98901.00;;;-3.13;48.61
43298;BME280;28892;55.640;37.532;2022-12-20T12:25:54;98888.09;;;-3.28;48.67
43298;BME280;28892;55.640;37.532;2022-12-20T12:28:21;98887.38;;;-3.30;48.83
43298;BME280;28892;55.640;37.532;2022-12-20T12:30:52;98897.38;;;-3.24;48.71
43298;BME280;28892;55.640;37.532;2022-12-20T12:33:29;98890.53;;;-3.25;48.74
43298;BME280;28892;55.640;37.532;2022-12-20T12:46:58;98904.59;;;-3.69;50.00
43298;BME280;28892;55.640;37.532;2022-12-20T12:49:27;98896.50;;;-3.77;50.16
43298;BME280;28892;55.640;37.532;2022-12-20T12:51:59;98901.53;;;-3.61;50.28
43298;BME280;28892;55.640;37.532;2022-12-20T12:54:40;98892.00;;;-3.88;51.00
43298;BME280;28892;55.640;37.532;2022-12-20T13:07:40;98883.38;;;-3.61;50.36
43298;BME280;28892;55.640;37.532;2022-12-20T13:12:55;98875.34;;;-4.12;51.62
43298;BME280;28892;55.640;37.532;2022-12-20T13:20:20;98881.88;;;-4.06;51.82
43298;BME280;28892;55.640;37.532;2022-12-20T13:25:48;98879.75;;;-3.99;51.64
43298;BME280;28892;55.640;37.532;2022-12-20T13:33:41;98868.81;;;-3.77;51.52
43298;BME280;28892;55.640;37.532;2022-12-20T13:52:52;98882.50;;;-4.44;52.92
43298;BME280;28892;55.640;37.532;2022-12-20T13:55:46;98882.88;;;-4.36;53.42
43298;BME280;28892;55.640;37.532;2022-12-20T13:58:18;98879.31;;;-4.21;52.79
43298;BME280;28892;55.640;37.532;2022-12-20T14:00:45;98865.97;;;-4.42;52.41
43298;BME280;28892;55.640;37.532;2022-12-20T14:05:42;98875.09;;;-4.36;53.08
43298;BME280;28892;55.640;37.532;2022-12-20T14:08:13;98855.16;;;-4.49;53.38
43298;BME280;28892;55.640;37.532;2022-12-20T14:10:46;98868.28;;;-4.37;53.20
43298;BME280;28892;55.640;37.532;2022-12-20T14:13:25;98859.44;;;-4.20;53.24
43298;BME280;28892;55.640;37.532;2022-12-20T14:15:52;98857.16;;;-4.39;53.57
43298;BME280;28892;55.640;37.532;2022-12-20T14:18:23;98848.50;;;-4.53;53.64
43298;BME280;28892;55.640;37.532;2022-12-20T14:20:58;98859.38;;;-4.33;53.54
43298;BME280;28892;55.640;37.532;2022-12-20T14:23:52;98862.03;;;-4.20;53.20
43298;BME280;28892;55.640;37.532;2022-12-20T14:26:26;98856.50;;;-4.28;54.64
43298;BME280;28892;55.640;37.532;2022-12-20T14:28:59;98861.75;;;-4.15;54.41
43298;BME280;28892;55.640;37.532;2022-12-20T14:31:58;98864.78;;;-4.09;54.42
43298;BME280;28892;55.640;37.532;2022-12-20T14:34:29;98848.38;;;-4.09;53.39
43298;BME280;28892;55.640;37.532;2022-12-20T14:42:39;98848.81;;;-4.02;53.13
43298;BME280;28892;55.640;37.532;2022-12-20T14:47:31;98847.88;;;-4.29;53.58
43298;BME280;28892;55.640;37.532;2022-12-20T14:50:05;98850.25;;;-4.11;53.61
43298;BME280;28892;55.640;37.532;2022-12-20T14:53:20;98836.41;;;-3.97;53.21
43298;BME280;28892;55.640;37.532;2022-12-20T14:56:47;98834.91;;;-3.87;52.88
43298;BME280;28892;55.640;37.532;2022-12-20T14:59:41;98848.63;;;-3.59;52.58
43298;BME280;28892;55.640;37.532;2022-12-20T15:08:14;98861.88;;;-4.46;54.18
43298;BME280;28892;55.640;37.532;2022-12-20T15:11:00;98854.41;;;-4.51;54.23
43298;BME280;28892;55.640;37.532;2022-12-20T15:16:23;98854.47;;;-4.38;54.22
43298;BME280;28892;55.640;37.532;2022-12-20T15:18:57;98860.38;;;-4.36;54.00